Main page
METAR-TAF:

METAR-TAF

Airports :

Lydd Airport

Lydd, England

latitude: 50-57N, longitude: 000-56E, elevation: 3 m

Current weather observation

The report was made 16 minutes ago, at 08:50 UTC
Wind 4 kt from the Southeast, varying between East and South/Southeast
Temperature 19°C
Humidity 68%
Pressure 1028 hPa
Visibility 10 km or more
no clouds below 1500 m and no cumulonimbus

METAR: EGMD 210850Z 13004KT 080V160 CAVOK 19/13 Q1028

Time: 10:06 (09:06 UTC)

Forecast

The report was made 1 hour and 2 minutes ago, at 08:04 UTC
Forecast valid from 21 at 09 UTC to 21 at 18 UTC
Wind 8 kt from the South/Southwest
Visibility 10 km or more
Few clouds at a height of 3000 ft

TAF: EGMD 210804Z 2109/2118 20008KT 9999 FEW030

Weather observations and forecasts of more than 4000 airports (METAR and TAF reports).

The available stations are represented by yellow and red dots on the map.

Hover mouse over dot to see the name of the station.

Then click to see weather observations and forecasts.

To change the map : click on the green buttons with a black cross to zoom in, on the green button with a dash to zoom out, or on the green arrows for adjacent maps.


METAR-TAF: